createdAt,value
2018-09-17T00:00:43.070Z,17.30
2018-09-17T00:05:38.029Z,17.10
2018-09-17T00:08:05.608Z,17.30
2018-09-17T00:10:33.266Z,17.40
2018-09-17T00:13:00.817Z,17.40
2018-09-17T00:17:55.808Z,17.50
2018-09-17T00:20:23.424Z,17.30
2018-09-17T00:22:51.026Z,17.40
2018-09-17T00:27:46.604Z,17.30
2018-09-17T00:30:14.148Z,17.30
2018-09-17T00:32:41.690Z,17.40
2018-09-17T00:35:09.157Z,17.60
2018-09-17T00:37:36.843Z,17.60
2018-09-17T00:40:04.386Z,17.60
2018-09-17T00:42:31.996Z,17.40
2018-09-17T00:44:59.495Z,17.40
2018-09-17T00:47:26.948Z,17.20
2018-09-17T00:49:54.430Z,17.40
2018-09-17T00:52:21.858Z,17.40
2018-09-17T00:54:49.416Z,17.50
2018-09-17T00:57:17.048Z,17.30
2018-09-17T00:59:44.593Z,17.30
2018-09-17T01:02:12.160Z,17.10
2018-09-17T01:04:40.381Z,17.00
2018-09-17T01:07:07.907Z,17.00
2018-09-17T01:09:42.564Z,16.90
2018-09-17T01:14:38.263Z,16.90
2018-09-17T01:17:06.537Z,16.70
2018-09-17T01:19:34.780Z,16.70
2018-09-17T01:22:02.322Z,16.80
2018-09-17T01:24:29.904Z,16.50
2018-09-17T01:29:25.089Z,16.50
2018-09-17T01:34:20.300Z,16.80
2018-09-17T01:36:48.192Z,16.90
2018-09-17T01:39:16.343Z,17.10
2018-09-17T01:41:44.705Z,17.20
2018-09-17T01:44:12.244Z,17.20
2018-09-17T01:46:39.743Z,17.10
2018-09-17T01:49:07.395Z,17.00
2018-09-17T01:51:34.916Z,16.80
2018-09-17T01:54:02.521Z,16.70
2018-09-17T01:56:30.440Z,17.00
2018-09-17T02:03:53.978Z,16.90
2018-09-17T02:08:49.394Z,16.70
2018-09-17T02:11:16.837Z,16.60
2018-09-17T02:13:45.386Z,16.80
2018-09-17T02:16:12.868Z,16.60
2018-09-17T02:18:40.567Z,16.60
2018-09-17T02:21:08.124Z,16.60
2018-09-17T02:23:35.596Z,16.30
2018-09-17T02:26:03.172Z,16.30
2018-09-17T02:28:30.845Z,16.30
2018-09-17T02:30:58.458Z,16.50
2018-09-17T02:33:25.940Z,16.50
2018-09-17T02:35:54.205Z,16.50
2018-09-17T02:40:49.109Z,16.40
2018-09-17T02:43:16.637Z,16.20
2018-09-17T02:45:44.233Z,16.10
2018-09-17T02:48:11.911Z,16.30
2018-09-17T02:50:39.496Z,16.30
2018-09-17T02:53:07.079Z,16.40
2018-09-17T03:00:29.868Z,15.90
2018-09-17T03:05:24.862Z,16.20
2018-09-17T03:12:47.393Z,16.40
2018-09-17T03:15:26.381Z,16.30
2018-09-17T03:17:53.909Z,16.10
2018-09-17T03:20:21.384Z,16.10
2018-09-17T03:22:48.955Z,16.00
2018-09-17T03:25:16.366Z,16.00
2018-09-17T03:27:44.905Z,15.90
2018-09-17T03:32:39.992Z,15.80
2018-09-17T03:35:07.511Z,16.00
2018-09-17T03:37:35.015Z,15.70
2018-09-17T03:40:02.600Z,15.70
2018-09-17T03:42:30.104Z,15.90
2018-09-17T03:44:58.112Z,15.90
2018-09-17T03:47:25.971Z,17.60
2018-09-17T03:49:53.648Z,15.90
2018-09-17T03:52:21.819Z,15.40
2018-09-17T03:54:49.355Z,16.10
2018-09-17T03:57:17.185Z,14.80
2018-09-17T03:59:45.632Z,15.30
2018-09-17T04:02:13.301Z,15.70
2018-09-17T04:09:36.552Z,15.90
2018-09-17T04:12:04.853Z,16.00
2018-09-17T04:16:59.886Z,16.10
2018-09-17T04:19:28.292Z,16.40
2018-09-17T04:21:55.921Z,16.30
2018-09-17T04:24:23.468Z,16.10
2018-09-17T04:26:50.920Z,16.40
2018-09-17T04:29:18.404Z,15.70
2018-09-17T04:31:46.641Z,15.40
2018-09-17T04:34:14.249Z,15.00
2018-09-17T04:36:41.937Z,15.50
2018-09-17T04:39:11.312Z,15.80
2018-09-17T04:41:39.381Z,15.60
2018-09-17T04:44:06.910Z,15.70
2018-09-17T04:51:29.557Z,15.50
2018-09-17T04:53:57.021Z,15.60
2018-09-17T04:56:24.530Z,15.70
2018-09-17T04:58:52.101Z,15.40
2018-09-17T05:03:47.113Z,15.70
2018-09-17T05:06:14.785Z,15.50
2018-09-17T05:08:42.482Z,15.40
2018-09-17T05:13:38.645Z,15.30
2018-09-17T05:21:03.494Z,15.40
2018-09-17T05:23:31.181Z,15.60
2018-09-17T05:25:58.764Z,15.40
2018-09-17T05:28:26.264Z,15.70
2018-09-17T05:30:53.811Z,15.30
2018-09-17T05:33:21.360Z,15.40
2018-09-17T05:35:49.569Z,15.40
2018-09-17T05:38:17.338Z,15.60
2018-09-17T05:40:44.861Z,15.80
2018-09-17T05:45:40.115Z,16.10
2018-09-17T05:57:52.029Z,15.80
2018-09-17T06:00:19.597Z,15.40
2018-09-17T06:07:42.161Z,15.50
2018-09-17T06:10:13.741Z,15.10
2018-09-17T06:15:09.364Z,15.70
2018-09-17T06:17:37.121Z,15.40
2018-09-17T06:24:59.692Z,15.30
2018-09-17T06:27:27.208Z,15.60
2018-09-17T06:29:54.756Z,15.40
2018-09-17T06:32:22.276Z,15.70
2018-09-17T06:34:49.983Z,16.00
2018-09-17T06:37:17.553Z,17.10
2018-09-17T06:39:45.119Z,16.30
2018-09-17T06:47:07.779Z,16.60
2018-09-17T06:49:35.215Z,16.60
2018-09-17T06:52:02.703Z,16.50
2018-09-17T06:54:30.447Z,16.10
2018-09-17T06:59:26.206Z,16.60
2018-09-17T07:01:54.677Z,17.00
2018-09-17T07:04:22.230Z,17.00
2018-09-17T07:06:49.856Z,16.10
2018-09-17T07:09:17.751Z,17.40
2018-09-17T07:11:45.404Z,17.60
2018-09-17T07:16:41.072Z,19.20
2018-09-17T07:21:36.058Z,18.60
2018-09-17T07:24:03.586Z,18.80
2018-09-17T07:26:31.752Z,18.90
2018-09-17T07:29:00.064Z,20.00
2018-09-17T07:31:27.648Z,19.20
2018-09-17T07:33:55.125Z,19.20
2018-09-17T07:36:22.780Z,19.40
2018-09-17T07:38:50.762Z,19.60
2018-09-17T07:41:18.791Z,19.90
2018-09-17T07:46:14.362Z,20.10
2018-09-17T07:48:41.976Z,19.90
2018-09-17T07:51:09.592Z,20.60
2018-09-17T07:53:37.916Z,20.90
2018-09-17T08:01:03.405Z,21.20
2018-09-17T08:03:30.904Z,21.30
2018-09-17T08:05:59.200Z,21.60
2018-09-17T08:10:55.019Z,22.00
2018-09-17T08:13:22.633Z,22.10
2018-09-17T08:23:13.276Z,22.50
2018-09-17T08:25:41.377Z,22.60
2018-09-17T08:30:36.347Z,23.00
2018-09-17T08:42:56.100Z,24.90
2018-09-17T08:45:23.753Z,24.20
2018-09-17T08:47:51.362Z,25.10
2018-09-17T08:50:18.921Z,24.60
2018-09-17T08:57:53.239Z,25.10
2018-09-17T09:00:21.033Z,25.20
2018-09-17T09:03:53.016Z,25.40
2018-09-17T09:08:52.550Z,25.40
2018-09-17T09:11:21.634Z,25.70
2018-09-17T09:13:54.625Z,26.00
2018-09-17T09:16:23.373Z,25.80
2018-09-17T09:18:50.984Z,26.40
2018-09-17T09:23:46.121Z,26.90
2018-09-17T09:26:14.457Z,27.00
2018-09-17T09:28:42.550Z,27.30
2018-09-17T09:31:10.124Z,27.20
2018-09-17T09:33:37.724Z,27.40
2018-09-17T09:36:05.275Z,27.50
2018-09-17T09:38:33.284Z,27.70
2018-09-17T09:41:00.917Z,28.00
2018-09-17T09:43:29.060Z,28.10
2018-09-17T09:45:56.615Z,28.30
2018-09-17T09:53:19.088Z,28.60
2018-09-17T09:55:46.684Z,28.90
2018-09-17T09:58:14.315Z,28.50
2018-09-17T10:00:47.395Z,29.50
2018-09-17T10:03:16.984Z,29.00
2018-09-17T10:05:45.406Z,28.90
2018-09-17T10:08:12.887Z,28.90
2018-09-17T10:10:46.236Z,29.20
2018-09-17T10:13:19.461Z,29.30
2018-09-17T10:15:53.707Z,29.30
2018-09-17T10:18:26.925Z,29.30
2018-09-17T10:20:54.527Z,29.50
2018-09-17T10:23:21.942Z,29.70
2018-09-17T10:25:49.869Z,29.90
2018-09-17T10:28:17.477Z,29.90
2018-09-17T10:30:45.390Z,30.00
2018-09-17T10:33:13.056Z,30.00
2018-09-17T10:35:41.012Z,30.20
2018-09-17T10:40:35.959Z,30.50
2018-09-17T10:43:04.374Z,30.80
2018-09-17T10:45:32.136Z,30.70
2018-09-17T10:47:59.612Z,30.50
2018-09-17T10:50:27.827Z,30.50
2018-09-17T10:52:55.282Z,30.40
2018-09-17T10:55:22.751Z,30.20
2018-09-17T10:57:50.422Z,30.40
2018-09-17T11:00:18.004Z,30.60
2018-09-17T11:02:45.461Z,30.70
2018-09-17T11:05:13.781Z,30.60
2018-09-17T11:07:41.373Z,30.60
2018-09-17T11:10:09.398Z,30.70
2018-09-17T11:12:37.031Z,30.90
2018-09-17T11:15:04.636Z,30.70
2018-09-17T11:17:32.419Z,30.60
2018-09-17T11:19:59.920Z,30.70
2018-09-17T11:22:27.455Z,30.70
2018-09-17T11:24:55.203Z,30.70
2018-09-17T11:27:22.676Z,30.70
2018-09-17T11:32:17.820Z,30.60
2018-09-17T11:34:45.833Z,30.50
2018-09-17T11:39:41.453Z,30.40
2018-09-17T11:42:09.017Z,30.30
2018-09-17T11:44:38.331Z,30.20
2018-09-17T11:47:17.641Z,30.20
2018-09-17T11:49:45.320Z,30.20
2018-09-17T11:52:12.871Z,30.00
2018-09-17T11:57:07.746Z,30.10
2018-09-17T11:59:36.259Z,30.00
2018-09-17T12:02:04.399Z,29.50
2018-09-17T12:04:37.939Z,29.80
2018-09-17T12:09:38.612Z,29.80
2018-09-17T12:12:06.241Z,29.60
2018-09-17T12:14:34.724Z,29.60
2018-09-17T12:19:29.892Z,29.30
2018-09-17T12:24:25.046Z,29.40
2018-09-17T12:26:53.462Z,29.60
2018-09-17T12:29:20.941Z,29.10
2018-09-17T12:31:48.723Z,29.10
2018-09-17T12:34:16.356Z,28.90
2018-09-17T12:39:12.008Z,28.60
2018-09-17T12:41:39.676Z,28.50
2018-09-17T12:44:07.291Z,28.70
2018-09-17T12:46:34.842Z,29.00
2018-09-17T12:49:02.309Z,28.50
2018-09-17T13:03:48.390Z,28.90
2018-09-17T13:11:10.743Z,28.50
2018-09-17T13:13:39.224Z,28.60
2018-09-17T13:16:07.449Z,28.30
2018-09-17T13:30:53.452Z,28.20
2018-09-17T13:35:48.633Z,28.00
2018-09-17T13:38:16.264Z,28.00
2018-09-17T13:40:43.926Z,28.30
2018-09-17T13:43:12.127Z,27.90
2018-09-17T13:45:40.040Z,27.90
2018-09-17T13:53:02.993Z,28.10
2018-09-17T13:55:30.678Z,28.10
2018-09-17T13:57:58.584Z,28.20
2018-09-17T14:00:26.179Z,28.30
2018-09-17T14:02:53.731Z,28.30
2018-09-17T14:05:21.799Z,28.20
2018-09-17T14:07:50.584Z,28.10
2018-09-17T14:10:19.329Z,28.30
2018-09-17T14:12:47.316Z,28.40
2018-09-17T14:15:15.133Z,28.40
2018-09-17T14:17:43.285Z,28.60
2018-09-17T14:22:38.453Z,29.00
2018-09-17T14:27:34.517Z,29.50
2018-09-17T14:30:02.112Z,29.60
2018-09-17T14:32:35.271Z,29.70
2018-09-17T14:35:03.561Z,29.90
2018-09-17T14:40:00.913Z,29.60
2018-09-17T14:42:28.708Z,29.00
2018-09-17T14:44:56.233Z,28.60
2018-09-17T14:49:51.662Z,28.00
2018-09-17T14:52:20.251Z,27.80
2018-09-17T14:54:47.775Z,27.30
2018-09-17T14:57:15.339Z,27.00
2018-09-17T14:59:43.230Z,26.70
2018-09-17T15:02:14.089Z,26.50
2018-09-17T15:04:41.751Z,26.50
2018-09-17T15:07:09.283Z,26.30
2018-09-17T15:12:05.495Z,26.50
2018-09-17T15:14:33.145Z,26.40
2018-09-17T15:21:56.197Z,25.30
2018-09-17T15:26:52.242Z,25.90
2018-09-17T15:36:45.036Z,26.00
2018-09-17T15:39:14.336Z,25.80
2018-09-17T15:41:42.467Z,25.50
2018-09-17T15:44:12.371Z,25.60
2018-09-17T15:49:07.777Z,25.40
2018-09-17T15:51:35.335Z,25.80
2018-09-17T15:56:30.698Z,24.90
2018-09-17T15:58:58.376Z,25.30
2018-09-17T16:01:26.064Z,25.10
2018-09-17T16:03:53.565Z,25.10
2018-09-17T16:06:21.129Z,25.10
2018-09-17T16:11:16.328Z,25.60
2018-09-17T16:13:44.083Z,25.70
2018-09-17T16:16:11.595Z,26.30
2018-09-17T16:18:39.746Z,26.00
2018-09-17T16:21:08.081Z,25.80
2018-09-17T16:26:04.253Z,25.50
2018-09-17T16:28:31.910Z,25.60
2018-09-17T16:30:59.413Z,25.90
2018-09-17T16:35:54.526Z,25.40
2018-09-17T16:38:22.179Z,25.70
2018-09-17T16:40:49.705Z,25.50
2018-09-17T16:43:17.248Z,25.30
2018-09-17T16:48:12.237Z,25.50
2018-09-17T16:50:39.796Z,25.10
2018-09-17T16:58:02.227Z,24.80
2018-09-17T17:00:29.857Z,24.80
2018-09-17T17:05:25.056Z,24.90
2018-09-17T17:12:53.147Z,24.90
2018-09-17T17:15:28.139Z,24.90
2018-09-17T17:17:56.970Z,24.40
2018-09-17T17:22:52.803Z,24.50
2018-09-17T17:27:51.243Z,24.00
2018-09-17T17:40:12.404Z,24.30
2018-09-17T17:44:45.398Z,24.10
2018-09-17T17:49:40.782Z,23.90
2018-09-17T18:02:03.224Z,23.70
2018-09-17T18:04:34.024Z,23.70
2018-09-17T18:07:03.280Z,23.70
2018-09-17T18:09:31.236Z,23.60
2018-09-17T18:11:58.992Z,23.70
2018-09-17T18:14:27.468Z,23.60
2018-09-17T18:16:55.314Z,23.50
2018-09-17T18:19:23.955Z,23.50
2018-09-17T18:21:54.260Z,23.40
2018-09-17T18:24:23.300Z,23.40
2018-09-17T18:26:50.904Z,23.40
2018-09-17T18:29:19.255Z,23.40
2018-09-17T18:31:46.833Z,23.40
2018-09-17T18:34:15.820Z,23.40
2018-09-17T18:36:45.928Z,23.30
2018-09-17T18:39:18.731Z,23.20
2018-09-17T18:44:16.126Z,23.20
2018-09-17T18:49:16.583Z,23.10
2018-09-17T18:51:45.699Z,23.00
2018-09-17T18:54:13.295Z,23.00
2018-09-17T18:56:41.096Z,23.00
2018-09-17T18:59:08.639Z,23.00
2018-09-17T19:01:38.915Z,23.00
2018-09-17T19:04:06.725Z,23.00
2018-09-17T19:06:35.742Z,22.90
2018-09-17T19:11:33.671Z,22.70
2018-09-17T19:14:07.370Z,22.80
2018-09-17T19:16:41.545Z,22.70
2018-09-17T19:19:09.406Z,22.70
2018-09-17T19:21:42.925Z,22.60
2018-09-17T19:26:39.633Z,22.50
2018-09-17T19:29:13.786Z,22.40
2018-09-17T19:31:42.173Z,22.30
2018-09-17T19:34:09.931Z,22.30
2018-09-17T19:36:37.445Z,22.30
2018-09-17T19:41:43.625Z,22.20
2018-09-17T19:44:11.594Z,22.10
2018-09-17T19:46:39.282Z,22.20
2018-09-17T19:49:07.538Z,22.10
2018-09-17T19:54:10.675Z,22.10
2018-09-17T19:56:39.666Z,22.00
2018-09-17T19:59:13.257Z,22.00
2018-09-17T20:04:14.778Z,21.90
2018-09-17T20:09:10.982Z,21.80
2018-09-17T20:14:06.864Z,21.70
2018-09-17T20:16:34.867Z,21.60
2018-09-17T20:19:02.988Z,21.50
2018-09-17T20:21:30.830Z,21.50
2018-09-17T20:23:58.887Z,21.40
2018-09-17T20:26:26.699Z,21.40
2018-09-17T20:31:22.254Z,21.30
2018-09-17T20:33:49.979Z,21.30
2018-09-17T20:36:17.689Z,21.30
2018-09-17T20:38:45.816Z,21.30
2018-09-17T20:41:13.422Z,21.30
2018-09-17T20:43:41.446Z,21.30
2018-09-17T20:46:09.585Z,21.20
2018-09-17T20:51:05.444Z,21.10
2018-09-17T20:56:02.140Z,21.40
2018-09-17T20:58:29.911Z,21.10
2018-09-17T21:00:58.065Z,21.00
2018-09-17T21:03:25.837Z,21.00
2018-09-17T21:15:45.512Z,20.80
2018-09-17T21:18:13.251Z,20.70
2018-09-17T21:20:40.801Z,20.70
2018-09-17T21:23:08.316Z,20.70
2018-09-17T21:25:35.946Z,20.80
2018-09-17T21:30:32.971Z,20.70
2018-09-17T21:33:02.123Z,20.70
2018-09-17T21:35:29.681Z,20.90
2018-09-17T21:40:25.812Z,20.70
2018-09-17T21:45:20.981Z,20.60
2018-09-17T21:50:16.045Z,20.60
2018-09-17T21:52:43.652Z,20.60
2018-09-17T21:55:11.247Z,20.60
2018-09-17T21:57:38.781Z,20.60
2018-09-17T22:00:07.774Z,20.60
2018-09-17T22:02:35.365Z,20.50
2018-09-17T22:05:02.957Z,20.50
2018-09-17T22:07:30.524Z,20.50
2018-09-17T22:09:58.036Z,20.30
2018-09-17T22:12:25.635Z,20.30
2018-09-17T22:14:53.124Z,20.30
2018-09-17T22:17:20.696Z,20.20
2018-09-17T22:19:48.218Z,20.30
2018-09-17T22:22:15.892Z,20.10
2018-09-17T22:24:43.409Z,19.50
2018-09-17T22:27:10.982Z,20.20
2018-09-17T22:29:38.481Z,20.20
2018-09-17T22:32:05.991Z,20.20
2018-09-17T22:34:33.557Z,20.10
2018-09-17T22:37:01.141Z,20.00
2018-09-17T22:39:30.507Z,20.00
2018-09-17T22:41:58.099Z,19.90
2018-09-17T22:46:53.169Z,19.80
2018-09-17T22:51:48.347Z,20.00
2018-09-17T22:56:43.468Z,19.50
2018-09-17T22:59:10.945Z,19.70
2018-09-17T23:01:38.461Z,19.60
2018-09-17T23:04:06.013Z,19.20
2018-09-17T23:06:33.619Z,19.60
2018-09-17T23:09:01.703Z,19.70
2018-09-17T23:11:30.156Z,19.80
2018-09-17T23:16:25.075Z,19.40
2018-09-17T23:18:52.596Z,19.60
2018-09-17T23:21:20.675Z,19.60
2018-09-17T23:23:48.453Z,19.40
2018-09-17T23:26:16.701Z,19.40
2018-09-17T23:28:44.279Z,19.40
2018-09-17T23:31:11.856Z,19.40
2018-09-17T23:33:39.452Z,19.30
2018-09-17T23:36:06.955Z,19.40
2018-09-17T23:38:34.485Z,19.10
2018-09-17T23:41:02.020Z,19.20
2018-09-17T23:43:29.568Z,19.00
2018-09-17T23:45:57.068Z,19.20
2018-09-17T23:48:24.476Z,19.20
2018-09-17T23:50:51.992Z,19.30
2018-09-17T23:53:19.533Z,19.30
2018-09-17T23:55:47.038Z,19.10
2018-09-17T23:58:14.537Z,19.00
